createdAt,value
2019-01-04T00:01:45.542Z,4.40
2019-01-04T00:04:18.542Z,4.57
2019-01-04T00:06:48.730Z,14.70
2019-01-04T00:09:19.321Z,11.37
2019-01-04T00:11:49.634Z,5.40
2019-01-04T00:14:19.747Z,5.00
2019-01-04T00:16:49.871Z,4.73
2019-01-04T00:19:20.011Z,4.40
2019-01-04T00:21:50.207Z,4.10
2019-01-04T00:24:20.303Z,4.37
2019-01-04T00:26:50.422Z,5.63
2019-01-04T00:29:20.523Z,6.40
2019-01-04T00:31:50.653Z,6.17
2019-01-04T00:34:20.754Z,5.20
2019-01-04T00:36:51.122Z,5.37
2019-01-04T00:39:21.224Z,5.07
2019-01-04T00:41:51.351Z,5.57
2019-01-04T00:44:21.463Z,5.33
2019-01-04T00:46:51.571Z,5.00
2019-01-04T00:49:21.693Z,6.07
2019-01-04T00:51:51.846Z,5.10
2019-01-04T00:54:22.057Z,5.30
2019-01-04T00:57:09.022Z,6.03
2019-01-04T01:00:16.339Z,5.53
2019-01-04T01:03:52.198Z,5.37
2019-01-04T01:06:58.482Z,5.70
2019-01-04T01:09:58.447Z,5.20
2019-01-04T01:12:53.991Z,5.33
2019-01-04T01:15:59.445Z,6.57
2019-01-04T01:18:57.036Z,6.10
2019-01-04T01:22:06.170Z,6.00
2019-01-04T01:25:15.120Z,6.20
2019-01-04T01:28:29.155Z,6.40
2019-01-04T01:31:32.487Z,6.33
2019-01-04T01:34:32.954Z,7.73
2019-01-04T01:37:14.955Z,7.70
2019-01-04T01:40:11.284Z,7.60
2019-01-04T01:43:17.602Z,8.43
2019-01-04T01:46:24.269Z,8.03
2019-01-04T01:49:37.390Z,8.47
2019-01-04T01:52:15.426Z,9.57
2019-01-04T01:54:45.558Z,9.00
2019-01-04T01:57:15.655Z,8.87
2019-01-04T01:59:45.786Z,8.73
2019-01-04T02:02:15.906Z,9.47
2019-01-04T02:04:46.294Z,9.67
2019-01-04T02:07:16.966Z,9.77
2019-01-04T02:09:48.139Z,9.13
2019-01-04T02:12:18.281Z,10.20
2019-01-04T02:14:48.366Z,9.23
2019-01-04T02:17:18.486Z,9.17
2019-01-04T02:19:48.593Z,9.57
2019-01-04T02:22:18.702Z,9.80
2019-01-04T02:24:48.814Z,9.73
2019-01-04T02:27:18.902Z,9.57
2019-01-04T02:29:49.043Z,10.17
2019-01-04T02:32:19.145Z,10.03
2019-01-04T02:34:49.266Z,9.77
2019-01-04T02:37:19.401Z,10.53
2019-01-04T02:39:49.501Z,9.27
2019-01-04T02:42:19.622Z,10.20
2019-01-04T02:44:49.732Z,10.10
2019-01-04T02:47:19.898Z,11.03
2019-01-04T02:49:49.999Z,10.57
2019-01-04T02:52:20.111Z,10.50
2019-01-04T02:54:50.234Z,10.70
2019-01-04T02:57:20.327Z,11.20
2019-01-04T02:59:50.457Z,11.50
2019-01-04T03:02:39.730Z,12.07
2019-01-04T03:05:10.118Z,12.50
2019-01-04T03:07:41.288Z,11.77
2019-01-04T03:10:11.430Z,11.90
2019-01-04T03:12:41.546Z,12.37
2019-01-04T03:15:11.675Z,14.17
2019-01-04T03:17:41.794Z,13.43
2019-01-04T03:20:11.910Z,15.50
2019-01-04T03:22:42.026Z,14.30
2019-01-04T03:25:12.135Z,14.03
2019-01-04T03:27:42.342Z,15.53
2019-01-04T03:30:12.439Z,16.63
2019-01-04T03:32:42.812Z,15.80
2019-01-04T03:35:13.240Z,16.40
2019-01-04T03:37:43.328Z,15.97
2019-01-04T03:40:13.447Z,18.10
2019-01-04T03:42:43.580Z,17.27
2019-01-04T03:45:13.679Z,17.80
2019-01-04T03:47:43.799Z,18.70
2019-01-04T03:50:13.897Z,19.10
2019-01-04T03:52:44.103Z,19.67
2019-01-04T03:55:14.191Z,19.40
2019-01-04T03:57:44.310Z,18.77
2019-01-04T04:00:15.495Z,19.27
2019-01-04T04:02:45.591Z,19.53
2019-01-04T04:05:15.801Z,18.67
2019-01-04T04:07:45.898Z,19.43
2019-01-04T04:10:16.041Z,20.93
2019-01-04T04:12:46.145Z,21.13
2019-01-04T04:15:16.335Z,20.77
2019-01-04T04:17:46.448Z,22.03
2019-01-04T04:20:17.615Z,21.27
2019-01-04T04:22:47.734Z,21.47
2019-01-04T04:25:17.830Z,20.23
2019-01-04T04:27:47.978Z,21.93
2019-01-04T04:30:18.079Z,22.53
2019-01-04T04:32:48.197Z,22.53
2019-01-04T04:35:18.311Z,23.40
2019-01-04T04:37:48.403Z,21.70
2019-01-04T04:40:18.527Z,22.90
2019-01-04T04:42:48.623Z,23.57
2019-01-04T04:45:18.798Z,23.87
2019-01-04T04:47:48.910Z,22.67
2019-01-04T04:50:19.093Z,23.13
2019-01-04T04:52:49.183Z,22.90
2019-01-04T04:55:19.307Z,23.60
2019-01-04T04:57:49.424Z,22.70
2019-01-04T05:00:19.514Z,24.43
2019-01-04T05:02:49.630Z,22.50
2019-01-04T05:05:19.814Z,24.03
2019-01-04T05:07:50.131Z,23.07
2019-01-04T05:10:20.246Z,22.70
2019-01-04T05:12:50.363Z,22.53
2019-01-04T05:15:20.483Z,21.83
2019-01-04T05:17:50.602Z,22.97
2019-01-04T05:20:20.722Z,21.80
2019-01-04T05:22:50.819Z,20.93
2019-01-04T05:25:20.938Z,21.73
2019-01-04T05:27:51.030Z,21.50
2019-01-04T05:30:21.411Z,22.17
2019-01-04T05:32:51.506Z,21.07
2019-01-04T05:35:21.621Z,20.73
2019-01-04T05:37:51.737Z,20.10
2019-01-04T05:40:21.838Z,19.47
2019-01-04T05:42:51.963Z,20.37
2019-01-04T05:45:22.057Z,20.40
2019-01-04T05:47:52.291Z,20.60
2019-01-04T05:50:22.390Z,20.83
2019-01-04T05:52:52.518Z,20.07
2019-01-04T05:55:22.638Z,20.43
2019-01-04T05:57:52.738Z,20.00
2019-01-04T06:00:22.866Z,20.17
2019-01-04T06:02:52.954Z,19.03
2019-01-04T06:05:23.250Z,19.57
2019-01-04T06:07:53.342Z,20.90
2019-01-04T06:10:23.437Z,19.23
2019-01-04T06:12:53.563Z,21.30
2019-01-04T06:15:23.659Z,19.47
2019-01-04T06:17:53.838Z,20.57
2019-01-04T06:20:23.926Z,19.90
2019-01-04T06:22:54.043Z,21.07
2019-01-04T06:25:24.162Z,20.83
2019-01-04T06:27:54.258Z,20.23
2019-01-04T06:30:24.380Z,20.87
2019-01-04T06:32:54.469Z,20.13
2019-01-04T06:35:24.615Z,21.17
2019-01-04T06:37:54.710Z,21.47
2019-01-04T06:40:24.850Z,22.27
2019-01-04T06:42:54.947Z,22.80
2019-01-04T06:45:25.062Z,22.43
2019-01-04T06:47:55.175Z,22.00
2019-01-04T06:50:25.268Z,22.30
2019-01-04T06:52:55.386Z,23.00
2019-01-04T06:56:08.715Z,23.63
2019-01-04T06:58:38.830Z,24.07
2019-01-04T07:01:08.928Z,24.93
2019-01-04T07:03:39.082Z,26.90
2019-01-04T07:06:09.215Z,28.03
2019-01-04T07:08:39.347Z,27.63
2019-01-04T07:11:09.469Z,29.73
2019-01-04T07:13:39.606Z,30.80
2019-01-04T07:16:09.722Z,28.23
2019-01-04T07:18:39.820Z,29.50
2019-01-04T07:21:09.949Z,29.80
2019-01-04T07:23:40.030Z,29.90
2019-01-04T07:26:10.410Z,29.40
2019-01-04T07:28:40.506Z,29.57
2019-01-04T07:31:10.626Z,30.90
2019-01-04T07:33:41.090Z,30.87
2019-01-04T07:36:11.182Z,29.07
2019-01-04T07:38:41.306Z,29.63
2019-01-04T07:41:11.403Z,30.13
2019-01-04T07:43:41.870Z,30.40
2019-01-04T07:46:11.954Z,29.43
2019-01-04T07:48:42.123Z,30.80
2019-01-04T07:51:12.559Z,29.37
2019-01-04T07:53:42.683Z,29.90
2019-01-04T07:56:12.806Z,33.40
2019-01-04T07:58:42.963Z,30.77
2019-01-04T08:01:13.089Z,30.97
2019-01-04T08:03:44.242Z,30.77
2019-01-04T08:06:14.642Z,31.27
2019-01-04T08:08:44.744Z,29.97
2019-01-04T08:11:15.111Z,28.77
2019-01-04T08:13:45.278Z,29.10
2019-01-04T08:16:16.422Z,27.60
2019-01-04T08:18:46.505Z,28.07
2019-01-04T08:21:16.635Z,29.10
2019-01-04T08:23:47.687Z,28.87
2019-01-04T08:26:17.890Z,28.70
2019-01-04T08:28:47.999Z,27.90
2019-01-04T08:31:18.114Z,28.53
2019-01-04T08:33:48.234Z,27.40
2019-01-04T08:36:18.354Z,26.27
2019-01-04T08:38:48.479Z,27.43
2019-01-04T08:41:18.570Z,25.30
2019-01-04T08:43:48.718Z,28.43
2019-01-04T08:46:18.817Z,24.53
2019-01-04T08:48:48.947Z,25.00
2019-01-04T08:51:20.207Z,25.10
2019-01-04T08:54:01.490Z,23.87
2019-01-04T08:56:35.091Z,23.40
2019-01-04T08:59:05.249Z,23.10
2019-01-04T09:01:36.378Z,24.90
2019-01-04T09:04:07.810Z,23.73
2019-01-04T09:06:38.550Z,23.67
2019-01-04T09:09:09.745Z,23.07
2019-01-04T09:11:39.847Z,23.03
2019-01-04T09:14:10.002Z,22.30
2019-01-04T09:16:40.106Z,23.40
2019-01-04T09:19:10.218Z,24.90
2019-01-04T09:21:40.623Z,22.50
2019-01-04T09:24:10.718Z,22.53
2019-01-04T09:26:40.843Z,20.97
2019-01-04T09:29:10.946Z,22.23
2019-01-04T09:31:41.203Z,23.40
2019-01-04T09:34:11.310Z,20.97
2019-01-04T09:36:41.720Z,20.67
2019-01-04T09:39:12.062Z,20.30
2019-01-04T09:41:55.460Z,21.50
2019-01-04T09:44:26.451Z,20.07
2019-01-04T09:46:56.602Z,19.07
2019-01-04T09:49:26.695Z,18.90
2019-01-04T09:51:58.450Z,18.67
2019-01-04T09:54:28.558Z,19.40
2019-01-04T09:56:58.679Z,19.00
2019-01-04T09:59:28.800Z,18.87
2019-01-04T10:01:59.351Z,19.57
2019-01-04T10:04:29.462Z,18.73
2019-01-04T10:06:59.646Z,19.60
2019-01-04T10:09:30.053Z,19.53
2019-01-04T10:12:00.297Z,20.03
2019-01-04T10:14:30.410Z,19.17
2019-01-04T10:17:00.918Z,20.03
2019-01-04T10:19:31.010Z,20.30
2019-01-04T10:22:01.130Z,18.83
2019-01-04T10:24:33.502Z,18.67
2019-01-04T10:27:03.635Z,19.83
2019-01-04T10:29:33.731Z,19.07
2019-01-04T10:32:04.189Z,20.43
2019-01-04T10:34:34.631Z,18.93
2019-01-04T10:37:04.765Z,21.13
2019-01-04T10:39:34.884Z,19.23
2019-01-04T10:42:04.976Z,18.90
2019-01-04T10:44:35.102Z,19.73
2019-01-04T10:47:05.199Z,19.40
2019-01-04T10:49:35.425Z,18.63
2019-01-04T10:52:06.594Z,18.23
2019-01-04T10:54:36.767Z,17.73
2019-01-04T10:57:06.859Z,17.80
2019-01-04T10:59:37.246Z,18.43
2019-01-04T11:02:07.342Z,17.73
2019-01-04T11:04:37.474Z,17.67
2019-01-04T11:07:07.659Z,17.47
2019-01-04T11:09:37.774Z,17.23
2019-01-04T11:12:07.890Z,17.17
2019-01-04T11:14:37.915Z,16.20
2019-01-04T11:17:08.126Z,16.47
2019-01-04T11:19:38.221Z,17.37
2019-01-04T11:22:44.418Z,16.30
2019-01-04T11:26:03.614Z,16.97
2019-01-04T11:29:27.123Z,17.53
2019-01-04T11:32:25.654Z,16.50
2019-01-04T11:35:22.862Z,16.37
2019-01-04T11:38:16.074Z,17.27
2019-01-04T11:41:30.051Z,16.40
2019-01-04T11:44:17.987Z,16.00
2019-01-04T11:47:20.153Z,15.10
2019-01-04T11:50:21.387Z,15.63
2019-01-04T11:52:56.054Z,15.00
2019-01-04T11:55:26.158Z,15.63
2019-01-04T11:57:56.278Z,13.83
2019-01-04T12:00:26.467Z,12.93
2019-01-04T12:02:56.972Z,13.97
2019-01-04T12:05:27.086Z,11.87
2019-01-04T12:07:57.359Z,13.37
2019-01-04T12:10:27.478Z,13.23
2019-01-04T12:12:57.607Z,13.07
2019-01-04T12:15:28.098Z,13.10
2019-01-04T12:17:59.487Z,11.07
2019-01-04T12:20:31.014Z,12.67
2019-01-04T12:23:01.956Z,12.90
2019-01-04T12:25:32.344Z,13.40
2019-01-04T12:28:02.503Z,11.90
2019-01-04T12:30:33.711Z,12.43
2019-01-04T12:33:03.815Z,13.13
2019-01-04T12:35:33.957Z,12.73
2019-01-04T12:38:04.047Z,12.63
2019-01-04T12:40:34.538Z,12.83
2019-01-04T12:43:04.694Z,12.17
2019-01-04T12:45:34.832Z,11.93
2019-01-04T12:48:04.951Z,12.37
2019-01-04T12:50:35.047Z,12.27
2019-01-04T12:53:05.857Z,11.83
2019-01-04T12:55:35.952Z,11.60
2019-01-04T12:58:06.120Z,12.23
2019-01-04T13:00:36.219Z,11.53
2019-01-04T13:03:06.339Z,10.77
2019-01-04T13:05:36.475Z,11.90
2019-01-04T13:08:06.252Z,10.90
2019-01-04T13:10:36.395Z,10.70
2019-01-04T13:13:06.495Z,10.87
2019-01-04T13:15:36.606Z,10.87
2019-01-04T13:18:06.705Z,10.33
2019-01-04T13:20:36.922Z,9.77
2019-01-04T13:23:07.019Z,9.00
2019-01-04T13:25:37.511Z,10.33
2019-01-04T13:28:07.630Z,10.83
2019-01-04T13:30:37.730Z,10.27
2019-01-04T13:33:07.835Z,9.73
2019-01-04T13:35:37.958Z,10.17
2019-01-04T13:38:08.731Z,9.93
2019-01-04T13:40:38.806Z,9.07
2019-01-04T13:43:08.938Z,9.43
2019-01-04T13:45:39.039Z,9.47
2019-01-04T13:48:09.478Z,9.43
2019-01-04T13:50:39.618Z,9.00
2019-01-04T13:53:09.731Z,8.17
2019-01-04T13:55:39.846Z,8.93
2019-01-04T13:58:09.974Z,9.20
2019-01-04T14:00:40.170Z,9.67
2019-01-04T14:03:10.263Z,10.00
2019-01-04T14:05:40.375Z,9.53
2019-01-04T14:08:10.546Z,9.53
2019-01-04T14:10:40.646Z,9.90
2019-01-04T14:13:10.766Z,10.30
2019-01-04T14:15:41.930Z,9.27
2019-01-04T14:18:12.148Z,9.20
2019-01-04T14:20:42.230Z,9.40
2019-01-04T14:23:12.376Z,9.80
2019-01-04T14:25:42.490Z,9.00
2019-01-04T14:28:12.585Z,9.63
2019-01-04T14:30:42.706Z,8.70
2019-01-04T14:33:12.799Z,9.27
2019-01-04T14:35:42.930Z,9.37
2019-01-04T14:38:13.041Z,9.20
2019-01-04T14:40:43.141Z,9.43
2019-01-04T14:43:13.252Z,9.07
2019-01-04T14:45:43.420Z,9.50
2019-01-04T14:48:13.843Z,9.67
2019-01-04T14:50:43.942Z,9.70
2019-01-04T14:53:14.150Z,9.57
2019-01-04T14:55:44.238Z,9.77
2019-01-04T14:58:14.355Z,9.40
2019-01-04T15:00:44.473Z,9.67
2019-01-04T15:03:14.576Z,9.07
2019-01-04T15:05:50.320Z,9.43
2019-01-04T15:08:16.466Z,9.97
2019-01-04T15:10:46.610Z,10.33
2019-01-04T15:13:16.706Z,9.63
2019-01-04T15:15:46.919Z,9.20
2019-01-04T15:18:17.006Z,10.00
2019-01-04T15:20:47.115Z,9.47
2019-01-04T15:23:17.250Z,9.33
2019-01-04T15:25:47.375Z,9.63
2019-01-04T15:28:17.486Z,9.70
2019-01-04T15:30:47.585Z,10.40
2019-01-04T15:33:17.694Z,10.43
2019-01-04T15:35:48.703Z,10.77
2019-01-04T15:38:18.858Z,10.30
2019-01-04T15:40:48.956Z,11.00
2019-01-04T15:43:21.386Z,11.43
2019-01-04T15:45:51.490Z,11.13
2019-01-04T15:48:22.004Z,10.80
2019-01-04T15:50:52.498Z,12.43
2019-01-04T15:53:23.149Z,11.53
2019-01-04T15:55:53.183Z,11.47
2019-01-04T15:58:23.311Z,11.90
2019-01-04T16:00:53.465Z,11.83
2019-01-04T16:03:23.564Z,11.77
2019-01-04T16:05:53.674Z,11.80
2019-01-04T16:08:23.842Z,11.63
2019-01-04T16:10:54.053Z,11.67
2019-01-04T16:13:24.151Z,13.20
2019-01-04T16:15:54.294Z,13.47
2019-01-04T16:18:24.421Z,13.03
2019-01-04T16:20:54.527Z,14.27
2019-01-04T16:23:24.950Z,13.53
2019-01-04T16:25:55.038Z,12.87
2019-01-04T16:28:25.287Z,12.70
2019-01-04T16:30:55.696Z,13.10
2019-01-04T16:33:25.809Z,12.70
2019-01-04T16:35:55.927Z,12.83
2019-01-04T16:38:26.052Z,12.47
2019-01-04T16:40:56.532Z,12.77
2019-01-04T16:43:26.640Z,13.27
2019-01-04T16:45:57.075Z,12.63
2019-01-04T16:48:27.175Z,12.43
2019-01-04T16:50:57.309Z,13.17
2019-01-04T16:53:27.413Z,13.33
2019-01-04T16:55:57.546Z,14.13
2019-01-04T16:58:27.676Z,11.67
2019-01-04T17:00:58.076Z,12.03
2019-01-04T17:03:28.197Z,12.77
2019-01-04T17:05:58.314Z,11.83
2019-01-04T17:08:28.712Z,11.80
2019-01-04T17:10:58.790Z,12.20
2019-01-04T17:13:28.995Z,12.27
2019-01-04T17:15:59.088Z,12.20
2019-01-04T17:18:29.202Z,12.60
2019-01-04T17:20:59.334Z,12.77
2019-01-04T17:23:30.574Z,12.70
2019-01-04T17:26:01.159Z,12.90
2019-01-04T17:28:31.827Z,12.27
2019-01-04T17:31:01.930Z,12.27
2019-01-04T17:33:33.179Z,11.37
2019-01-04T17:36:03.287Z,11.27
2019-01-04T17:38:33.434Z,11.97
2019-01-04T17:41:03.547Z,12.60
2019-01-04T17:43:33.642Z,12.20
2019-01-04T17:46:03.762Z,11.90
2019-01-04T17:48:33.879Z,12.30
2019-01-04T17:51:03.994Z,12.10
2019-01-04T17:53:34.787Z,12.23
2019-01-04T17:56:05.024Z,10.87
2019-01-04T17:58:35.474Z,11.50
2019-01-04T18:01:06.003Z,11.07
2019-01-04T18:03:36.430Z,10.67
2019-01-04T18:06:06.961Z,10.57
2019-01-04T18:08:37.190Z,12.27
2019-01-04T18:11:07.319Z,10.23
2019-01-04T18:13:38.425Z,10.37
2019-01-04T18:16:08.945Z,11.20
2019-01-04T18:18:39.085Z,10.40
2019-01-04T18:21:09.551Z,9.93
2019-01-04T18:23:39.714Z,10.50
2019-01-04T18:26:09.827Z,10.13
2019-01-04T18:28:40.234Z,10.40
2019-01-04T18:31:10.643Z,10.87
2019-01-04T18:33:40.766Z,9.77
2019-01-04T18:36:10.874Z,9.73
2019-01-04T18:38:40.963Z,9.90
2019-01-04T18:41:11.170Z,10.40
2019-01-04T18:43:41.271Z,10.03
2019-01-04T18:46:11.660Z,9.77
2019-01-04T18:48:42.106Z,9.90
2019-01-04T18:51:12.255Z,10.10
2019-01-04T18:53:42.350Z,10.50
2019-01-04T18:56:12.467Z,11.07
2019-01-04T18:58:42.579Z,10.43
2019-01-04T19:01:13.773Z,9.13
2019-01-04T19:03:44.095Z,9.27
2019-01-04T19:06:14.199Z,9.07
2019-01-04T19:08:44.416Z,9.40
2019-01-04T19:11:15.278Z,9.37
2019-01-04T19:13:45.415Z,9.83
2019-01-04T19:16:15.436Z,9.87
2019-01-04T19:18:46.726Z,10.07
2019-01-04T19:21:17.150Z,9.27
2019-01-04T19:23:47.270Z,9.43
2019-01-04T19:26:17.355Z,9.40
2019-01-04T19:28:47.481Z,10.03
2019-01-04T19:31:17.599Z,9.27
2019-01-04T19:33:47.722Z,10.17
2019-01-04T19:36:17.843Z,9.03
2019-01-04T19:38:47.941Z,8.77
2019-01-04T19:41:18.126Z,9.13
2019-01-04T19:43:48.214Z,9.47
2019-01-04T19:46:18.416Z,8.63
2019-01-04T19:48:48.510Z,9.70
2019-01-04T19:51:18.630Z,8.73
2019-01-04T19:53:48.738Z,8.93
2019-01-04T19:56:18.830Z,9.30
2019-01-04T19:58:48.982Z,9.73
2019-01-04T20:01:19.072Z,9.73
2019-01-04T20:03:49.288Z,8.67
2019-01-04T20:07:12.918Z,8.80
2019-01-04T20:10:51.063Z,8.40
2019-01-04T20:14:17.014Z,8.13
2019-01-04T20:20:13.936Z,7.57
2019-01-04T20:23:21.751Z,7.50
2019-01-04T20:26:20.016Z,7.40
2019-01-04T20:29:11.062Z,7.37
2019-01-04T20:31:58.974Z,6.90
2019-01-04T20:34:42.131Z,7.83
2019-01-04T20:37:39.147Z,7.77
2019-01-04T20:40:34.390Z,8.67
2019-01-04T20:43:17.143Z,8.70
2019-01-04T20:46:09.358Z,7.80
2019-01-04T20:49:15.887Z,8.03
2019-01-04T20:52:06.342Z,8.27
2019-01-04T20:55:04.724Z,7.90
2019-01-04T20:57:54.583Z,7.93
2019-01-04T21:00:49.782Z,9.20
2019-01-04T21:03:42.058Z,9.00
2019-01-04T21:06:37.012Z,10.37
2019-01-04T21:09:32.595Z,9.97
2019-01-04T21:12:20.734Z,10.93
2019-01-04T21:15:08.592Z,11.53
2019-01-04T21:17:56.482Z,11.77
2019-01-04T21:20:51.171Z,12.63
2019-01-04T21:23:49.851Z,13.33
2019-01-04T21:26:51.189Z,13.80
2019-01-04T21:29:47.207Z,15.03
2019-01-04T21:32:35.078Z,14.87
2019-01-04T21:35:30.276Z,15.07
2019-01-04T21:38:18.746Z,15.80
2019-01-04T21:41:02.439Z,15.57
2019-01-04T21:43:58.622Z,16.00
2019-01-04T21:46:40.562Z,15.97
2019-01-04T21:49:29.837Z,16.50
2019-01-04T21:52:21.746Z,17.07
2019-01-04T21:55:11.120Z,16.90
2019-01-04T21:58:03.488Z,17.07
2019-01-04T22:01:05.902Z,16.83
2019-01-04T22:03:53.362Z,16.80
2019-01-04T22:06:51.942Z,15.13
2019-01-04T22:09:41.102Z,16.00
2019-01-04T22:12:29.338Z,17.30
2019-01-04T22:15:33.903Z,17.63
2019-01-04T22:18:21.734Z,16.77
2019-01-04T22:21:29.006Z,17.07
2019-01-04T22:24:18.466Z,17.23
2019-01-04T22:27:10.315Z,17.03
2019-01-04T22:29:57.838Z,16.77
2019-01-04T22:32:46.991Z,18.20
2019-01-04T22:35:38.982Z,16.53
2019-01-04T22:38:28.130Z,17.17
2019-01-04T22:41:32.803Z,18.00
2019-01-04T22:44:20.595Z,16.30
2019-01-04T22:47:00.946Z,17.20
2019-01-04T22:49:56.449Z,16.17
2019-01-04T22:52:44.481Z,16.57
2019-01-04T22:55:35.597Z,17.23
2019-01-04T22:58:37.001Z,17.07
2019-01-04T23:01:24.883Z,16.63
2019-01-04T23:04:23.478Z,17.17
2019-01-04T23:07:22.191Z,15.27
2019-01-04T23:10:23.750Z,15.07
2019-01-04T23:13:11.972Z,15.23
2019-01-04T23:16:09.091Z,15.73
2019-01-04T23:19:01.256Z,14.10
2019-01-04T23:22:22.438Z,13.73
2019-01-04T23:25:16.710Z,13.90
2019-01-04T23:28:17.925Z,13.40
2019-01-04T23:31:16.178Z,13.13
2019-01-04T23:34:11.170Z,12.90
2019-01-04T23:37:06.134Z,12.43
2019-01-04T23:39:54.318Z,11.77
2019-01-04T23:42:42.358Z,11.63
2019-01-04T23:45:37.483Z,12.90
2019-01-04T23:48:26.622Z,11.40
2019-01-04T23:51:21.710Z,11.60
2019-01-04T23:54:25.976Z,10.97
2019-01-04T23:57:15.158Z,10.70
